sensor_id;sensor_type;location;lat;lon;timestamp;temperature;humidity
71117;SHT31;58775;46.992;9.518;2023-08-07T00:01:53;13.74;72.97
71117;SHT31;58775;46.992;9.518;2023-08-07T00:03:54;13.70;72.51
71117;SHT31;58775;46.992;9.518;2023-08-07T00:05:55;13.80;71.94
71117;SHT31;58775;46.992;9.518;2023-08-07T00:07:56;13.69;74.74
71117;SHT31;58775;46.992;9.518;2023-08-07T00:09:57;13.76;71.83
71117;SHT31;58775;46.992;9.518;2023-08-07T00:11:58;13.84;71.67
71117;SHT31;58775;46.992;9.518;2023-08-07T00:13:59;13.93;70.62
71117;SHT31;58775;46.992;9.518;2023-08-07T00:16:01;13.86;72.85
71117;SHT31;58775;46.992;9.518;2023-08-07T00:18:02;13.84;73.74
71117;SHT31;58775;46.992;9.518;2023-08-07T00:20:04;13.59;77.40
71117;SHT31;58775;46.992;9.518;2023-08-07T00:22:05;13.63;75.22
71117;SHT31;58775;46.992;9.518;2023-08-07T00:24:06;13.74;70.19
71117;SHT31;58775;46.992;9.518;2023-08-07T00:26:06;13.72;72.92
71117;SHT31;58775;46.992;9.518;2023-08-07T00:28:07;13.77;72.30
71117;SHT31;58775;46.992;9.518;2023-08-07T00:30:08;13.72;72.21
71117;SHT31;58775;46.992;9.518;2023-08-07T00:32:09;13.73;73.20
71117;SHT31;58775;46.992;9.518;2023-08-07T00:34:10;13.72;73.78
71117;SHT31;58775;46.992;9.518;2023-08-07T00:36:11;13.74;73.85
71117;SHT31;58775;46.992;9.518;2023-08-07T00:38:12;13.53;76.17
71117;SHT31;58775;46.992;9.518;2023-08-07T00:40:13;13.65;73.99
71117;SHT31;58775;46.992;9.518;2023-08-07T00:42:14;13.62;74.51
71117;SHT31;58775;46.992;9.518;2023-08-07T00:44:14;13.69;74.34
71117;SHT31;58775;46.992;9.518;2023-08-07T00:46:15;13.63;74.92
71117;SHT31;58775;46.992;9.518;2023-08-07T00:48:17;13.63;74.34
71117;SHT31;58775;46.992;9.518;2023-08-07T00:50:18;13.61;75.93
71117;SHT31;58775;46.992;9.518;2023-08-07T00:52:19;13.43;77.92
71117;SHT31;58775;46.992;9.518;2023-08-07T00:54:20;13.34;76.47
71117;SHT31;58775;46.992;9.518;2023-08-07T00:56:22;13.41;74.88
71117;SHT31;58775;46.992;9.518;2023-08-07T00:58:24;13.43;73.36
71117;SHT31;58775;46.992;9.518;2023-08-07T01:16:57;13.24;76.52
71117;SHT31;58775;46.992;9.518;2023-08-07T01:19:00;13.28;77.82
71117;SHT31;58775;46.992;9.518;2023-08-07T01:21:03;13.18;77.61
71117;SHT31;58775;46.992;9.518;2023-08-07T01:23:04;13.19;78.87
71117;SHT31;58775;46.992;9.518;2023-08-07T01:25:05;13.19;75.44
71117;SHT31;58775;46.992;9.518;2023-08-07T01:29:27;13.05;85.16
71117;SHT31;58775;46.992;9.518;2023-08-07T01:31:30;12.94;84.23
71117;SHT31;58775;46.992;9.518;2023-08-07T01:33:50;13.01;82.85
71117;SHT31;58775;46.992;9.518;2023-08-07T01:35:55;12.98;78.09
71117;SHT31;58775;46.992;9.518;2023-08-07T01:38:00;13.10;75.81
71117;SHT31;58775;46.992;9.518;2023-08-07T01:40:01;13.04;80.08
71117;SHT31;58775;46.992;9.518;2023-08-07T01:42:09;13.12;78.42
71117;SHT31;58775;46.992;9.518;2023-08-07T01:44:36;13.00;81.64
71117;SHT31;58775;46.992;9.518;2023-08-07T01:47:15;12.97;81.71
71117;SHT31;58775;46.992;9.518;2023-08-07T01:57:09;12.76;82.17
71117;SHT31;58775;46.992;9.518;2023-08-07T01:59:47;12.67;83.21
71117;SHT31;58775;46.992;9.518;2023-08-07T02:02:02;12.68;84.23
71117;SHT31;58775;46.992;9.518;2023-08-07T02:04:10;12.73;82.40
71117;SHT31;58775;46.992;9.518;2023-08-07T02:10:16;12.77;86.37
71117;SHT31;58775;46.992;9.518;2023-08-07T02:58:27;11.74;91.25
71117;SHT31;58775;46.992;9.518;2023-08-07T03:10:57;11.83;92.97
71117;SHT31;58775;46.992;9.518;2023-08-07T03:13:26;11.85;92.30
71117;SHT31;58775;46.992;9.518;2023-08-07T03:15:34;11.69;92.50
71117;SHT31;58775;46.992;9.518;2023-08-07T03:17:51;11.68;93.91
71117;SHT31;58775;46.992;9.518;2023-08-07T03:19:58;11.67;94.63
71117;SHT31;58775;46.992;9.518;2023-08-07T03:22:06;11.67;94.78
71117;SHT31;58775;46.992;9.518;2023-08-07T03:24:15;11.71;94.80
71117;SHT31;58775;46.992;9.518;2023-08-07T03:26:23;11.85;94.21
71117;SHT31;58775;46.992;9.518;2023-08-07T03:28:25;11.92;94.27
71117;SHT31;58775;46.992;9.518;2023-08-07T03:30:26;11.92;94.05
71117;SHT31;58775;46.992;9.518;2023-08-07T03:32:26;11.95;94.13
71117;SHT31;58775;46.992;9.518;2023-08-07T03:34:32;11.85;94.55
71117;SHT31;58775;46.992;9.518;2023-08-07T03:36:34;11.77;94.72
71117;SHT31;58775;46.992;9.518;2023-08-07T03:38:35;11.67;93.87
71117;SHT31;58775;46.992;9.518;2023-08-07T03:40:36;11.64;94.27
71117;SHT31;58775;46.992;9.518;2023-08-07T03:43:22;11.68;92.96
71117;SHT31;58775;46.992;9.518;2023-08-07T04:03:20;11.55;93.70
71117;SHT31;58775;46.992;9.518;2023-08-07T04:05:22;11.59;93.10
71117;SHT31;58775;46.992;9.518;2023-08-07T04:07:26;11.41;94.36
71117;SHT31;58775;46.992;9.518;2023-08-07T04:09:27;11.40;95.37
71117;SHT31;58775;46.992;9.518;2023-08-07T04:11:28;11.37;95.45
71117;SHT31;58775;46.992;9.518;2023-08-07T04:13:34;11.41;95.03
71117;SHT31;58775;46.992;9.518;2023-08-07T04:15:36;11.37;94.87
71117;SHT31;58775;46.992;9.518;2023-08-07T04:17:40;11.31;94.87
71117;SHT31;58775;46.992;9.518;2023-08-07T04:19:44;11.42;93.79
71117;SHT31;58775;46.992;9.518;2023-08-07T04:21:50;11.35;94.50
71117;SHT31;58775;46.992;9.518;2023-08-07T04:23:52;11.37;94.97
71117;SHT31;58775;46.992;9.518;2023-08-07T04:25:53;11.45;94.50
71117;SHT31;58775;46.992;9.518;2023-08-07T04:27:54;11.48;94.98
71117;SHT31;58775;46.992;9.518;2023-08-07T04:29:55;11.45;95.60
71117;SHT31;58775;46.992;9.518;2023-08-07T04:31:58;11.50;94.69
71117;SHT31;58775;46.992;9.518;2023-08-07T04:34:07;11.50;94.56
71117;SHT31;58775;46.992;9.518;2023-08-07T04:36:16;11.44;95.40
71117;SHT31;58775;46.992;9.518;2023-08-07T04:38:17;11.38;95.32
71117;SHT31;58775;46.992;9.518;2023-08-07T04:40:18;11.48;95.35
71117;SHT31;58775;46.992;9.518;2023-08-07T04:42:19;11.50;94.80
71117;SHT31;58775;46.992;9.518;2023-08-07T04:44:20;11.35;95.92
71117;SHT31;58775;46.992;9.518;2023-08-07T04:46:21;11.32;97.22
71117;SHT31;58775;46.992;9.518;2023-08-07T04:48:22;11.35;96.76
71117;SHT31;58775;46.992;9.518;2023-08-07T04:50:25;11.45;95.53
71117;SHT31;58775;46.992;9.518;2023-08-07T04:52:26;11.47;95.78
71117;SHT31;58775;46.992;9.518;2023-08-07T04:54:28;11.37;96.07
71117;SHT31;58775;46.992;9.518;2023-08-07T04:56:29;11.45;95.28
71117;SHT31;58775;46.992;9.518;2023-08-07T04:58:31;11.50;95.61
71117;SHT31;58775;46.992;9.518;2023-08-07T05:00:32;11.54;95.45
71117;SHT31;58775;46.992;9.518;2023-08-07T05:02:33;11.48;96.93
71117;SHT31;58775;46.992;9.518;2023-08-07T05:04:34;11.45;96.63
71117;SHT31;58775;46.992;9.518;2023-08-07T05:06:35;11.55;96.17
71117;SHT31;58775;46.992;9.518;2023-08-07T05:08:36;11.41;96.39
71117;SHT31;58775;46.992;9.518;2023-08-07T05:10:38;11.38;96.33
71117;SHT31;58775;46.992;9.518;2023-08-07T05:12:42;11.37;95.95
71117;SHT31;58775;46.992;9.518;2023-08-07T05:14:49;11.45;95.29
71117;SHT31;58775;46.992;9.518;2023-08-07T05:16:56;11.57;95.35
71117;SHT31;58775;46.992;9.518;2023-08-07T05:19:03;11.67;95.00
71117;SHT31;58775;46.992;9.518;2023-08-07T05:21:17;11.77;94.25
71117;SHT31;58775;46.992;9.518;2023-08-07T05:23:29;11.68;95.12
71117;SHT31;58775;46.992;9.518;2023-08-07T05:25:30;11.67;96.08
71117;SHT31;58775;46.992;9.518;2023-08-07T05:27:39;11.55;96.56
71117;SHT31;58775;46.992;9.518;2023-08-07T05:29:44;11.54;96.98
71117;SHT31;58775;46.992;9.518;2023-08-07T05:31:49;11.62;96.60
71117;SHT31;58775;46.992;9.518;2023-08-07T05:33:56;11.64;96.52
71117;SHT31;58775;46.992;9.518;2023-08-07T05:36:01;11.78;95.87
71117;SHT31;58775;46.992;9.518;2023-08-07T05:38:02;11.65;94.78
71117;SHT31;58775;46.992;9.518;2023-08-07T05:40:04;11.61;95.20
71117;SHT31;58775;46.992;9.518;2023-08-07T05:42:06;11.67;95.29
71117;SHT31;58775;46.992;9.518;2023-08-07T05:44:08;11.72;94.12
71117;SHT31;58775;46.992;9.518;2023-08-07T05:46:09;11.52;95.57
71117;SHT31;58775;46.992;9.518;2023-08-07T05:48:10;11.54;94.44
71117;SHT31;58775;46.992;9.518;2023-08-07T05:50:12;11.40;95.77
71117;SHT31;58775;46.992;9.518;2023-08-07T05:52:17;11.48;95.82
71117;SHT31;58775;46.992;9.518;2023-08-07T05:55:03;11.40;95.83
71117;SHT31;58775;46.992;9.518;2023-08-07T05:57:05;11.50;94.99
71117;SHT31;58775;46.992;9.518;2023-08-07T05:59:06;11.58;94.80
71117;SHT31;58775;46.992;9.518;2023-08-07T06:01:07;11.59;94.58
71117;SHT31;58775;46.992;9.518;2023-08-07T06:03:08;11.57;95.18
71117;SHT31;58775;46.992;9.518;2023-08-07T06:05:09;11.65;95.34
71117;SHT31;58775;46.992;9.518;2023-08-07T06:07:13;11.74;95.79
71117;SHT31;58775;46.992;9.518;2023-08-07T06:09:14;11.85;95.10
71117;SHT31;58775;46.992;9.518;2023-08-07T06:11:16;11.79;95.07
71117;SHT31;58775;46.992;9.518;2023-08-07T06:13:17;11.86;95.70
71117;SHT31;58775;46.992;9.518;2023-08-07T06:15:18;11.86;95.20
71117;SHT31;58775;46.992;9.518;2023-08-07T06:17:19;11.82;94.23
71117;SHT31;58775;46.992;9.518;2023-08-07T06:19:20;11.69;95.51
71117;SHT31;58775;46.992;9.518;2023-08-07T06:21:23;11.61;94.96
71117;SHT31;58775;46.992;9.518;2023-08-07T06:23:24;11.59;96.31
71117;SHT31;58775;46.992;9.518;2023-08-07T06:25:25;11.65;94.63
71117;SHT31;58775;46.992;9.518;2023-08-07T06:27:26;11.61;95.63
71117;SHT31;58775;46.992;9.518;2023-08-07T06:29:27;11.77;94.63
71117;SHT31;58775;46.992;9.518;2023-08-07T06:31:28;11.61;94.79
71117;SHT31;58775;46.992;9.518;2023-08-07T06:33:30;11.68;95.66
71117;SHT31;58775;46.992;9.518;2023-08-07T06:35:37;11.78;95.70
71117;SHT31;58775;46.992;9.518;2023-08-07T06:37:39;11.89;95.17
71117;SHT31;58775;46.992;9.518;2023-08-07T06:39:40;11.79;94.21
71117;SHT31;58775;46.992;9.518;2023-08-07T06:41:41;11.95;94.10
71117;SHT31;58775;46.992;9.518;2023-08-07T06:43:43;11.93;94.38
71117;SHT31;58775;46.992;9.518;2023-08-07T06:45:48;12.09;95.11
71117;SHT31;58775;46.992;9.518;2023-08-07T06:47:49;12.10;96.11
71117;SHT31;58775;46.992;9.518;2023-08-07T06:49:50;12.26;94.85
71117;SHT31;58775;46.992;9.518;2023-08-07T06:51:51;12.36;92.72
71117;SHT31;58775;46.992;9.518;2023-08-07T06:53:52;12.47;92.59
71117;SHT31;58775;46.992;9.518;2023-08-07T06:55:53;12.26;95.39
71117;SHT31;58775;46.992;9.518;2023-08-07T06:57:54;12.37;96.11
71117;SHT31;58775;46.992;9.518;2023-08-07T06:59:55;12.50;95.29
71117;SHT31;58775;46.992;9.518;2023-08-07T07:01:56;12.43;94.95
71117;SHT31;58775;46.992;9.518;2023-08-07T07:03:57;12.46;93.82
71117;SHT31;58775;46.992;9.518;2023-08-07T07:05:58;12.49;93.60
71117;SHT31;58775;46.992;9.518;2023-08-07T07:07:59;12.29;93.13
71117;SHT31;58775;46.992;9.518;2023-08-07T07:10:01;12.41;92.64
71117;SHT31;58775;46.992;9.518;2023-08-07T07:12:02;12.49;91.85
71117;SHT31;58775;46.992;9.518;2023-08-07T07:14:03;12.37;95.03
71117;SHT31;58775;46.992;9.518;2023-08-07T07:16:04;12.41;93.81
71117;SHT31;58775;46.992;9.518;2023-08-07T07:18:05;12.32;94.43
71117;SHT31;58775;46.992;9.518;2023-08-07T07:20:07;12.39;90.81
71117;SHT31;58775;46.992;9.518;2023-08-07T07:22:12;12.53;90.92
71117;SHT31;58775;46.992;9.518;2023-08-07T07:24:13;12.91;90.13
71117;SHT31;58775;46.992;9.518;2023-08-07T07:26:14;13.16;89.32
71117;SHT31;58775;46.992;9.518;2023-08-07T07:28:15;13.28;89.24
71117;SHT31;58775;46.992;9.518;2023-08-07T07:30:16;13.52;88.24
71117;SHT31;58775;46.992;9.518;2023-08-07T07:32:17;13.77;88.87
71117;SHT31;58775;46.992;9.518;2023-08-07T07:34:18;14.02;87.03
71117;SHT31;58775;46.992;9.518;2023-08-07T07:36:19;13.93;87.91
71117;SHT31;58775;46.992;9.518;2023-08-07T07:38:22;14.03;87.14
71117;SHT31;58775;46.992;9.518;2023-08-07T07:40:23;14.10;89.72
71117;SHT31;58775;46.992;9.518;2023-08-07T07:42:24;13.87;90.99
71117;SHT31;58775;46.992;9.518;2023-08-07T07:44:25;14.18;88.46
71117;SHT31;58775;46.992;9.518;2023-08-07T07:46:26;14.23;88.53
71117;SHT31;58775;46.992;9.518;2023-08-07T07:48:28;14.52;87.37
71117;SHT31;58775;46.992;9.518;2023-08-07T07:50:29;14.57;87.01
71117;SHT31;58775;46.992;9.518;2023-08-07T07:52:31;15.13;85.51
71117;SHT31;58775;46.992;9.518;2023-08-07T07:54:34;15.23;84.29
71117;SHT31;58775;46.992;9.518;2023-08-07T07:56:36;14.96;84.03
71117;SHT31;58775;46.992;9.518;2023-08-07T07:58:38;15.03;84.92
71117;SHT31;58775;46.992;9.518;2023-08-07T08:00:39;15.37;84.10
71117;SHT31;58775;46.992;9.518;2023-08-07T08:02:40;15.56;82.78
71117;SHT31;58775;46.992;9.518;2023-08-07T08:04:44;15.56;83.88
71117;SHT31;58775;46.992;9.518;2023-08-07T08:06:45;15.40;84.87
71117;SHT31;58775;46.992;9.518;2023-08-07T08:08:48;15.33;85.78
71117;SHT31;58775;46.992;9.518;2023-08-07T08:10:49;14.98;87.96
71117;SHT31;58775;46.992;9.518;2023-08-07T08:12:51;15.29;85.27
71117;SHT31;58775;46.992;9.518;2023-08-07T08:14:52;15.09;86.34
71117;SHT31;58775;46.992;9.518;2023-08-07T08:16:54;14.85;86.78
71117;SHT31;58775;46.992;9.518;2023-08-07T08:18:55;14.92;86.49
71117;SHT31;58775;46.992;9.518;2023-08-07T08:20:56;14.74;89.33
71117;SHT31;58775;46.992;9.518;2023-08-07T08:22:57;14.34;90.30
71117;SHT31;58775;46.992;9.518;2023-08-07T08:24:58;14.54;86.46
71117;SHT31;58775;46.992;9.518;2023-08-07T08:27:00;14.38;86.30
71117;SHT31;58775;46.992;9.518;2023-08-07T08:29:01;14.65;87.00
71117;SHT31;58775;46.992;9.518;2023-08-07T08:31:02;14.79;87.10
71117;SHT31;58775;46.992;9.518;2023-08-07T08:33:03;14.37;89.93
71117;SHT31;58775;46.992;9.518;2023-08-07T08:35:06;14.04;91.06
71117;SHT31;58775;46.992;9.518;2023-08-07T08:37:07;14.12;89.37
71117;SHT31;58775;46.992;9.518;2023-08-07T08:39:09;14.31;88.05
71117;SHT31;58775;46.992;9.518;2023-08-07T08:41:10;14.52;87.15
71117;SHT31;58775;46.992;9.518;2023-08-07T08:43:12;14.40;87.59
71117;SHT31;58775;46.992;9.518;2023-08-07T08:45:14;14.09;89.54
71117;SHT31;58775;46.992;9.518;2023-08-07T08:47:16;14.06;88.13
71117;SHT31;58775;46.992;9.518;2023-08-07T08:49:21;14.18;87.73
71117;SHT31;58775;46.992;9.518;2023-08-07T08:51:24;14.23;86.90
71117;SHT31;58775;46.992;9.518;2023-08-07T08:53:26;14.13;89.09
71117;SHT31;58775;46.992;9.518;2023-08-07T08:55:27;13.86;92.70
71117;SHT31;58775;46.992;9.518;2023-08-07T08:57:29;13.82;90.90
71117;SHT31;58775;46.992;9.518;2023-08-07T08:59:31;13.77;91.56
71117;SHT31;58775;46.992;9.518;2023-08-07T09:01:32;13.62;93.35
71117;SHT31;58775;46.992;9.518;2023-08-07T09:03:33;13.61;93.38
71117;SHT31;58775;46.992;9.518;2023-08-07T09:05:35;13.67;88.52
71117;SHT31;58775;46.992;9.518;2023-08-07T09:07:37;13.72;89.78
71117;SHT31;58775;46.992;9.518;2023-08-07T09:09:39;13.52;89.80
71117;SHT31;58775;46.992;9.518;2023-08-07T09:11:41;13.70;91.57
71117;SHT31;58775;46.992;9.518;2023-08-07T09:13:45;14.03;88.81
71117;SHT31;58775;46.992;9.518;2023-08-07T09:15:50;14.40;90.32
71117;SHT31;58775;46.992;9.518;2023-08-07T09:17:53;14.49;89.05
71117;SHT31;58775;46.992;9.518;2023-08-07T09:19:55;14.84;88.01
71117;SHT31;58775;46.992;9.518;2023-08-07T09:21:56;15.23;86.14
71117;SHT31;58775;46.992;9.518;2023-08-07T09:23:57;15.15;84.39
71117;SHT31;58775;46.992;9.518;2023-08-07T09:26:03;15.18;84.39
71117;SHT31;58775;46.992;9.518;2023-08-07T09:28:05;15.96;83.53
71117;SHT31;58775;46.992;9.518;2023-08-07T09:30:07;16.39;80.23
71117;SHT31;58775;46.992;9.518;2023-08-07T09:32:14;16.30;78.50
71117;SHT31;58775;46.992;9.518;2023-08-07T09:34:19;16.56;79.76
71117;SHT31;58775;46.992;9.518;2023-08-07T09:36:21;16.51;77.10
71117;SHT31;58775;46.992;9.518;2023-08-07T09:38:28;17.13;74.93
71117;SHT31;58775;46.992;9.518;2023-08-07T09:40:30;17.68;75.79
71117;SHT31;58775;46.992;9.518;2023-08-07T09:42:31;17.31;78.30
71117;SHT31;58775;46.992;9.518;2023-08-07T09:44:36;17.74;74.48
71117;SHT31;58775;46.992;9.518;2023-08-07T09:46:44;17.44;75.79
71117;SHT31;58775;46.992;9.518;2023-08-07T09:48:45;17.78;75.44
71117;SHT31;58775;46.992;9.518;2023-08-07T09:50:46;17.62;74.40
71117;SHT31;58775;46.992;9.518;2023-08-07T09:52:50;17.77;75.48
71117;SHT31;58775;46.992;9.518;2023-08-07T09:54:54;16.76;81.27
71117;SHT31;58775;46.992;9.518;2023-08-07T09:56:56;17.20;76.90
71117;SHT31;58775;46.992;9.518;2023-08-07T09:58:58;17.27;77.03
71117;SHT31;58775;46.992;9.518;2023-08-07T10:01:02;17.11;77.98
71117;SHT31;58775;46.992;9.518;2023-08-07T10:03:04;16.90;75.95
71117;SHT31;58775;46.992;9.518;2023-08-07T10:05:06;16.59;77.98
71117;SHT31;58775;46.992;9.518;2023-08-07T10:07:10;16.65;77.71
71117;SHT31;58775;46.992;9.518;2023-08-07T10:09:13;16.63;76.82
71117;SHT31;58775;46.992;9.518;2023-08-07T10:11:14;16.42;78.35
71117;SHT31;58775;46.992;9.518;2023-08-07T10:13:15;16.24;80.61
71117;SHT31;58775;46.992;9.518;2023-08-07T10:15:16;16.05;78.94
71117;SHT31;58775;46.992;9.518;2023-08-07T10:17:18;15.46;78.22
71117;SHT31;58775;46.992;9.518;2023-08-07T10:19:20;15.43;77.18
71117;SHT31;58775;46.992;9.518;2023-08-07T10:21:22;15.20;79.50
71117;SHT31;58775;46.992;9.518;2023-08-07T10:23:24;15.03;81.17
71117;SHT31;58775;46.992;9.518;2023-08-07T10:25:25;14.57;81.78
71117;SHT31;58775;46.992;9.518;2023-08-07T10:27:33;14.40;81.47
71117;SHT31;58775;46.992;9.518;2023-08-07T10:29:35;14.25;81.24
71117;SHT31;58775;46.992;9.518;2023-08-07T10:31:38;14.10;81.89
71117;SHT31;58775;46.992;9.518;2023-08-07T10:33:43;14.31;82.57
71117;SHT31;58775;46.992;9.518;2023-08-07T10:35:47;14.04;81.68
71117;SHT31;58775;46.992;9.518;2023-08-07T10:37:50;14.10;82.65
71117;SHT31;58775;46.992;9.518;2023-08-07T10:40:05;13.91;83.25
71117;SHT31;58775;46.992;9.518;2023-08-07T10:42:11;14.21;83.75
71117;SHT31;58775;46.992;9.518;2023-08-07T10:44:23;14.51;78.96
71117;SHT31;58775;46.992;9.518;2023-08-07T10:46:24;14.68;77.62
71117;SHT31;58775;46.992;9.518;2023-08-07T10:48:26;14.86;78.18
71117;SHT31;58775;46.992;9.518;2023-08-07T10:52:52;15.07;78.64
71117;SHT31;58775;46.992;9.518;2023-08-07T10:54:54;15.03;80.34
71117;SHT31;58775;46.992;9.518;2023-08-07T10:56:55;14.88;80.63
71117;SHT31;58775;46.992;9.518;2023-08-07T10:59:07;15.00;76.27
71117;SHT31;58775;46.992;9.518;2023-08-07T11:03:30;14.76;76.76
71117;SHT31;58775;46.992;9.518;2023-08-07T11:05:42;14.63;75.83
71117;SHT31;58775;46.992;9.518;2023-08-07T11:07:43;14.55;77.84
71117;SHT31;58775;46.992;9.518;2023-08-07T11:09:45;14.91;78.89
71117;SHT31;58775;46.992;9.518;2023-08-07T11:11:48;15.02;78.10
71117;SHT31;58775;46.992;9.518;2023-08-07T11:13:49;14.67;75.74
71117;SHT31;58775;46.992;9.518;2023-08-07T11:15:50;14.78;75.92
71117;SHT31;58775;46.992;9.518;2023-08-07T11:17:52;14.76;76.74
71117;SHT31;58775;46.992;9.518;2023-08-07T11:38:37;16.79;75.67
71117;SHT31;58775;46.992;9.518;2023-08-07T11:40:38;17.02;72.22
71117;SHT31;58775;46.992;9.518;2023-08-07T11:42:42;17.31;72.88
71117;SHT31;58775;46.992;9.518;2023-08-07T11:44:45;17.47;71.48
71117;SHT31;58775;46.992;9.518;2023-08-07T11:46:55;17.55;69.78
71117;SHT31;58775;46.992;9.518;2023-08-07T11:48:59;17.32;69.39
71117;SHT31;58775;46.992;9.518;2023-08-07T13:25:43;19.90;63.01
71117;SHT31;58775;46.992;9.518;2023-08-07T13:27:57;19.80;61.47
71117;SHT31;58775;46.992;9.518;2023-08-07T13:29:59;19.45;65.55
71117;SHT31;58775;46.992;9.518;2023-08-07T13:32:03;19.54;67.29
71117;SHT31;58775;46.992;9.518;2023-08-07T13:34:10;19.54;67.91
71117;SHT31;58775;46.992;9.518;2023-08-07T13:36:11;19.48;66.90
71117;SHT31;58775;46.992;9.518;2023-08-07T13:38:13;19.38;64.02
71117;SHT31;58775;46.992;9.518;2023-08-07T13:40:16;18.80;62.99
71117;SHT31;58775;46.992;9.518;2023-08-07T13:42:18;18.93;63.86
71117;SHT31;58775;46.992;9.518;2023-08-07T13:44:19;18.23;64.44
71117;SHT31;58775;46.992;9.518;2023-08-07T13:46:20;17.98;65.93
71117;SHT31;58775;46.992;9.518;2023-08-07T13:48:22;18.19;66.60
71117;SHT31;58775;46.992;9.518;2023-08-07T13:53:25;18.09;66.87
71117;SHT31;58775;46.992;9.518;2023-08-07T14:10:53;19.48;66.63
71117;SHT31;58775;46.992;9.518;2023-08-07T14:13:05;19.41;63.10
71117;SHT31;58775;46.992;9.518;2023-08-07T14:15:13;18.83;61.94
71117;SHT31;58775;46.992;9.518;2023-08-07T14:19:38;18.09;62.63
71117;SHT31;58775;46.992;9.518;2023-08-07T14:22:28;18.94;68.09
71117;SHT31;58775;46.992;9.518;2023-08-07T14:24:38;18.44;65.74
71117;SHT31;58775;46.992;9.518;2023-08-07T14:29:20;18.78;65.37
71117;SHT31;58775;46.992;9.518;2023-08-07T14:31:21;18.94;65.63
71117;SHT31;58775;46.992;9.518;2023-08-07T14:33:22;18.33;62.40
71117;SHT31;58775;46.992;9.518;2023-08-07T14:35:23;18.68;65.10
71117;SHT31;58775;46.992;9.518;2023-08-07T14:37:25;18.61;65.21
71117;SHT31;58775;46.992;9.518;2023-08-07T14:39:26;18.88;61.79
71117;SHT31;58775;46.992;9.518;2023-08-07T14:41:27;18.42;66.49
71117;SHT31;58775;46.992;9.518;2023-08-07T14:43:31;17.83;70.16
71117;SHT31;58775;46.992;9.518;2023-08-07T14:45:32;18.01;71.11
71117;SHT31;58775;46.992;9.518;2023-08-07T14:47:33;18.47;64.63
71117;SHT31;58775;46.992;9.518;2023-08-07T14:49:37;18.91;61.84
71117;SHT31;58775;46.992;9.518;2023-08-07T14:51:53;19.05;62.88
71117;SHT31;58775;46.992;9.518;2023-08-07T14:54:03;19.54;63.51
71117;SHT31;58775;46.992;9.518;2023-08-07T14:56:04;20.06;63.71
71117;SHT31;58775;46.992;9.518;2023-08-07T14:58:05;19.96;64.31
71117;SHT31;58775;46.992;9.518;2023-08-07T15:00:07;20.26;62.19
71117;SHT31;58775;46.992;9.518;2023-08-07T15:02:09;20.07;59.95
71117;SHT31;58775;46.992;9.518;2023-08-07T15:04:10;20.14;64.89
71117;SHT31;58775;46.992;9.518;2023-08-07T15:06:11;20.12;60.18
71117;SHT31;58775;46.992;9.518;2023-08-07T15:08:13;19.67;58.88
71117;SHT31;58775;46.992;9.518;2023-08-07T15:10:14;19.79;60.37
71117;SHT31;58775;46.992;9.518;2023-08-07T15:12:15;19.51;59.15
71117;SHT31;58775;46.992;9.518;2023-08-07T15:14:17;19.62;61.24
71117;SHT31;58775;46.992;9.518;2023-08-07T15:16:18;19.58;59.72
71117;SHT31;58775;46.992;9.518;2023-08-07T15:18:22;18.64;59.46
71117;SHT31;58775;46.992;9.518;2023-08-07T15:20:25;19.11;62.46
71117;SHT31;58775;46.992;9.518;2023-08-07T15:22:26;19.44;62.18
71117;SHT31;58775;46.992;9.518;2023-08-07T15:24:28;19.36;61.13
71117;SHT31;58775;46.992;9.518;2023-08-07T15:26:29;19.62;60.03
71117;SHT31;58775;46.992;9.518;2023-08-07T15:28:30;19.26;65.91
71117;SHT31;58775;46.992;9.518;2023-08-07T15:30:32;19.38;66.67
71117;SHT31;58775;46.992;9.518;2023-08-07T15:32:34;18.97;66.23
71117;SHT31;58775;46.992;9.518;2023-08-07T15:34:35;19.56;63.15
71117;SHT31;58775;46.992;9.518;2023-08-07T15:36:36;19.70;61.35
71117;SHT31;58775;46.992;9.518;2023-08-07T15:38:37;19.36;61.23
71117;SHT31;58775;46.992;9.518;2023-08-07T15:40:40;19.11;67.14
71117;SHT31;58775;46.992;9.518;2023-08-07T15:42:55;19.05;67.55
71117;SHT31;58775;46.992;9.518;2023-08-07T15:44:56;18.46;65.76
71117;SHT31;58775;46.992;9.518;2023-08-07T15:46:57;18.02;64.83
71117;SHT31;58775;46.992;9.518;2023-08-07T15:48:58;17.75;68.41
71117;SHT31;58775;46.992;9.518;2023-08-07T15:50:59;17.79;71.88
71117;SHT31;58775;46.992;9.518;2023-08-07T15:53:01;18.01;70.68
71117;SHT31;58775;46.992;9.518;2023-08-07T15:55:02;17.86;69.77
71117;SHT31;58775;46.992;9.518;2023-08-07T15:57:04;17.42;71.74
71117;SHT31;58775;46.992;9.518;2023-08-07T15:59:06;17.07;74.28
71117;SHT31;58775;46.992;9.518;2023-08-07T16:01:06;17.37;73.44
71117;SHT31;58775;46.992;9.518;2023-08-07T16:03:08;17.17;75.78
71117;SHT31;58775;46.992;9.518;2023-08-07T16:05:11;16.96;75.86
71117;SHT31;58775;46.992;9.518;2023-08-07T16:07:15;17.11;77.20
71117;SHT31;58775;46.992;9.518;2023-08-07T16:09:16;17.09;76.49
71117;SHT31;58775;46.992;9.518;2023-08-07T16:11:17;16.99;77.49
71117;SHT31;58775;46.992;9.518;2023-08-07T16:13:18;16.86;77.60
71117;SHT31;58775;46.992;9.518;2023-08-07T16:15:24;17.00;76.90
71117;SHT31;58775;46.992;9.518;2023-08-07T16:17:25;16.68;75.80
71117;SHT31;58775;46.992;9.518;2023-08-07T16:19:28;16.58;78.64
71117;SHT31;58775;46.992;9.518;2023-08-07T16:21:29;16.49;79.89
71117;SHT31;58775;46.992;9.518;2023-08-07T16:23:30;16.60;78.19
71117;SHT31;58775;46.992;9.518;2023-08-07T16:25:32;16.72;75.66
71117;SHT31;58775;46.992;9.518;2023-08-07T16:27:38;16.68;77.54
71117;SHT31;58775;46.992;9.518;2023-08-07T16:29:40;16.62;73.56
71117;SHT31;58775;46.992;9.518;2023-08-07T16:31:41;16.48;79.01
71117;SHT31;58775;46.992;9.518;2023-08-07T16:33:42;16.56;68.45
71117;SHT31;58775;46.992;9.518;2023-08-07T16:35:43;16.75;68.04
71117;SHT31;58775;46.992;9.518;2023-08-07T16:37:44;16.89;72.12
71117;SHT31;58775;46.992;9.518;2023-08-07T16:39:45;16.91;72.62
71117;SHT31;58775;46.992;9.518;2023-08-07T16:41:46;16.99;73.68
71117;SHT31;58775;46.992;9.518;2023-08-07T16:43:48;16.62;77.82
71117;SHT31;58775;46.992;9.518;2023-08-07T16:45:49;16.51;76.60
71117;SHT31;58775;46.992;9.518;2023-08-07T16:56:36;16.09;78.89
71117;SHT31;58775;46.992;9.518;2023-08-07T16:59:51;15.93;79.96
71117;SHT31;58775;46.992;9.518;2023-08-07T17:04:58;15.81;81.37
71117;SHT31;58775;46.992;9.518;2023-08-07T17:07:28;15.78;81.07
71117;SHT31;58775;46.992;9.518;2023-08-07T17:09:32;15.61;81.70
71117;SHT31;58775;46.992;9.518;2023-08-07T17:11:34;15.57;81.86
71117;SHT31;58775;46.992;9.518;2023-08-07T17:13:35;15.36;81.34
71117;SHT31;58775;46.992;9.518;2023-08-07T17:15:39;15.53;80.59
71117;SHT31;58775;46.992;9.518;2023-08-07T17:17:41;15.30;81.77
71117;SHT31;58775;46.992;9.518;2023-08-07T17:19:42;15.09;81.91